createdAt,value
2023-09-01T00:01:10.529Z,1.70
2023-09-01T00:03:37.487Z,2.20
2023-09-01T00:06:12.205Z,2.10
2023-09-01T00:08:38.975Z,2.10
2023-09-01T00:11:05.829Z,2.00
2023-09-01T00:13:32.664Z,2.28
2023-09-01T00:15:59.447Z,1.90
2023-09-01T00:18:26.199Z,1.73
2023-09-01T00:20:58.225Z,2.22
2023-09-01T00:23:26.494Z,1.90
2023-09-01T00:25:54.428Z,1.92
2023-09-01T00:28:21.237Z,1.65
2023-09-01T00:30:52.005Z,1.55
2023-09-01T00:33:18.836Z,1.77
2023-09-01T00:35:45.588Z,1.63
2023-09-01T00:38:12.480Z,1.90
2023-09-01T00:40:40.815Z,1.92
2023-09-01T00:43:07.562Z,1.77
2023-09-01T00:45:36.838Z,1.88
2023-09-01T00:48:04.302Z,1.50
2023-09-01T00:50:31.164Z,2.47
2023-09-01T00:52:57.927Z,1.98
2023-09-01T00:55:24.877Z,2.00
2023-09-01T00:57:54.557Z,2.30
2023-09-01T01:00:21.474Z,2.70
2023-09-01T01:02:48.807Z,2.08
2023-09-01T01:05:18.507Z,2.00
2023-09-01T01:07:51.623Z,2.08
2023-09-01T01:10:21.243Z,2.30
2023-09-01T01:12:50.720Z,2.28
2023-09-01T01:15:20.466Z,2.10
2023-09-01T01:17:48.271Z,2.10
2023-09-01T01:20:34.403Z,2.42
2023-09-01T01:23:11.403Z,2.47
2023-09-01T01:25:45.053Z,2.30
2023-09-01T01:28:12.298Z,2.22
2023-09-01T01:30:39.776Z,2.70
2023-09-01T01:33:15.165Z,1.98
2023-09-01T01:35:49.351Z,2.20
2023-09-01T01:38:22.166Z,2.30
2023-09-01T01:40:51.577Z,2.22
2023-09-01T01:43:22.616Z,2.25
2023-09-01T01:45:50.104Z,2.40
2023-09-01T01:48:17.354Z,2.30
2023-09-01T01:50:44.499Z,2.88
2023-09-01T01:53:11.293Z,2.65
2023-09-01T01:55:39.569Z,2.65
2023-09-01T01:58:06.406Z,2.10
2023-09-01T02:00:33.641Z,2.20
2023-09-01T02:03:00.498Z,2.35
2023-09-01T02:05:27.317Z,2.88
2023-09-01T02:07:54.073Z,2.45
2023-09-01T02:10:20.826Z,2.20
2023-09-01T02:12:49.226Z,2.25
2023-09-01T02:15:15.988Z,2.70
2023-09-01T02:17:42.778Z,2.20
2023-09-01T02:20:10.415Z,2.25
2023-09-01T02:22:37.199Z,2.75
2023-09-01T02:25:04.488Z,2.25
2023-09-01T02:27:31.256Z,2.90
2023-09-01T02:29:59.335Z,2.22
2023-09-01T02:32:26.060Z,2.67
2023-09-01T02:34:52.829Z,2.15
2023-09-01T02:37:19.567Z,2.78
2023-09-01T02:39:46.287Z,2.30
2023-09-01T02:42:13.089Z,2.67
2023-09-01T02:44:39.835Z,2.20
2023-09-01T02:47:07.925Z,2.90
2023-09-01T02:49:34.673Z,2.55
2023-09-01T02:52:01.414Z,3.08
2023-09-01T02:54:29.143Z,2.38
2023-09-01T02:56:55.887Z,2.90
2023-09-01T02:59:22.640Z,2.42
2023-09-01T03:01:49.470Z,2.40
2023-09-01T03:04:17.542Z,2.47
2023-09-01T03:06:44.326Z,2.67
2023-09-01T03:09:11.104Z,2.60
2023-09-01T03:11:37.854Z,2.35
2023-09-01T03:14:04.755Z,2.78
2023-09-01T03:16:31.863Z,3.10
2023-09-01T03:18:58.707Z,2.70
2023-09-01T03:21:27.515Z,2.50
2023-09-01T03:23:54.363Z,2.90
2023-09-01T03:26:21.150Z,2.60
2023-09-01T03:28:49.407Z,2.75
2023-09-01T03:31:16.186Z,2.70
2023-09-01T03:33:43.510Z,2.70
2023-09-01T03:36:10.359Z,2.30
2023-09-01T03:38:38.878Z,2.38
2023-09-01T03:41:06.608Z,2.53
2023-09-01T03:43:33.609Z,2.63
2023-09-01T03:46:00.818Z,2.38
2023-09-01T03:48:27.856Z,2.33
2023-09-01T03:51:08.149Z,2.80
2023-09-01T03:53:35.015Z,2.47
2023-09-01T03:56:07.975Z,1.92
2023-09-01T03:58:34.754Z,2.17
2023-09-01T04:01:01.568Z,2.35
2023-09-01T04:03:28.347Z,2.42
2023-09-01T04:05:57.084Z,2.22
2023-09-01T04:08:23.905Z,2.45
2023-09-01T04:10:50.680Z,2.00
2023-09-01T04:13:18.801Z,2.10
2023-09-01T04:15:45.621Z,1.88
2023-09-01T04:18:12.629Z,1.80
2023-09-01T04:20:39.558Z,1.90
2023-09-01T04:23:06.297Z,2.10
2023-09-01T04:25:34.453Z,2.13
2023-09-01T04:28:01.245Z,2.10
2023-09-01T04:30:30.884Z,1.92
2023-09-01T04:32:57.752Z,1.90
2023-09-01T04:35:24.531Z,2.17
2023-09-01T04:37:51.294Z,1.80
2023-09-01T04:40:18.032Z,1.75
2023-09-01T04:42:44.789Z,1.60
2023-09-01T04:45:11.538Z,1.48
2023-09-01T04:47:39.639Z,1.90
2023-09-01T04:50:07.170Z,1.40
2023-09-01T04:52:42.699Z,1.98
2023-09-01T04:55:10.309Z,1.90
2023-09-01T04:57:37.438Z,1.60
2023-09-01T05:00:05.359Z,1.70
2023-09-01T05:02:32.239Z,2.13
2023-09-01T05:05:00.371Z,1.67
2023-09-01T05:07:27.136Z,1.70
2023-09-01T05:09:53.895Z,1.42
2023-09-01T05:12:20.637Z,1.60
2023-09-01T05:14:47.618Z,1.67
2023-09-01T05:17:14.426Z,1.45
2023-09-01T05:19:41.165Z,1.75
2023-09-01T05:22:09.256Z,1.70
2023-09-01T05:24:35.987Z,1.70
2023-09-01T05:27:02.971Z,2.13
2023-09-01T05:29:29.726Z,1.90
2023-09-01T05:31:56.515Z,2.10
2023-09-01T05:34:23.266Z,1.67
2023-09-01T05:36:50.005Z,1.83
2023-09-01T05:39:18.106Z,1.80
2023-09-01T05:41:44.878Z,2.10
2023-09-01T05:44:11.606Z,1.88
2023-09-01T05:46:38.454Z,2.00
2023-09-01T05:49:05.310Z,1.77
2023-09-01T05:51:32.071Z,1.85
2023-09-01T05:53:58.845Z,1.58
2023-09-01T05:56:26.995Z,1.88
2023-09-01T05:58:53.751Z,2.00
2023-09-01T06:01:20.579Z,1.63
2023-09-01T06:03:47.405Z,1.65
2023-09-01T06:06:14.248Z,1.73
2023-09-01T06:08:41.044Z,1.75
2023-09-01T06:11:08.462Z,1.90
2023-09-01T06:13:36.648Z,1.75
2023-09-01T06:16:03.779Z,1.80
2023-09-01T06:18:30.716Z,1.40
2023-09-01T06:20:57.637Z,1.48
2023-09-01T06:23:24.408Z,1.80
2023-09-01T06:25:51.192Z,2.28
2023-09-01T06:28:18.070Z,1.50
2023-09-01T06:30:46.368Z,1.92
2023-09-01T06:33:13.207Z,1.83
2023-09-01T06:35:40.002Z,1.30
2023-09-01T06:38:07.315Z,1.88
2023-09-01T06:40:34.299Z,1.50
2023-09-01T06:43:02.894Z,1.85
2023-09-01T06:45:29.740Z,1.33
2023-09-01T06:47:57.923Z,1.50
2023-09-01T06:50:24.866Z,1.50
2023-09-01T06:52:51.881Z,1.70
2023-09-01T06:55:18.898Z,1.65
2023-09-01T06:57:45.725Z,1.50
2023-09-01T07:00:13.888Z,1.77
2023-09-01T07:02:40.715Z,1.40
2023-09-01T07:05:09.243Z,2.00
2023-09-01T07:07:36.010Z,1.75
2023-09-01T07:10:02.820Z,1.73
2023-09-01T07:12:29.557Z,2.17
2023-09-01T07:14:56.336Z,1.58
2023-09-01T07:17:23.437Z,1.52
2023-09-01T07:19:50.328Z,1.38
2023-09-01T07:22:18.439Z,1.85
2023-09-01T07:24:46.859Z,1.63
2023-09-01T07:27:13.874Z,1.92
2023-09-01T07:29:40.642Z,1.67
2023-09-01T07:32:07.436Z,1.50
2023-09-01T07:34:34.730Z,1.60
2023-09-01T07:37:01.579Z,1.48
2023-09-01T07:39:29.710Z,1.75
2023-09-01T07:41:58.380Z,1.48
2023-09-01T07:44:25.443Z,1.50
2023-09-01T07:46:52.197Z,1.60
2023-09-01T07:49:18.999Z,1.50
2023-09-01T07:51:45.820Z,1.27
2023-09-01T07:54:12.593Z,1.48
2023-09-01T07:56:40.721Z,1.20
2023-09-01T07:59:07.492Z,1.60
2023-09-01T08:01:34.479Z,1.35
2023-09-01T08:04:01.304Z,1.52
2023-09-01T08:06:28.136Z,1.40
2023-09-01T08:08:54.883Z,1.23
2023-09-01T08:11:21.720Z,1.35
2023-09-01T08:13:49.845Z,1.50
2023-09-01T08:16:16.830Z,1.20
2023-09-01T08:18:43.699Z,1.38
2023-09-01T08:21:11.056Z,1.42
2023-09-01T08:23:37.801Z,1.20
2023-09-01T08:26:04.914Z,1.52
2023-09-01T08:28:33.651Z,1.33
2023-09-01T08:31:04.180Z,1.50
2023-09-01T08:33:31.060Z,1.50
2023-09-01T08:36:01.045Z,1.23
2023-09-01T08:38:27.812Z,1.10
2023-09-01T08:40:59.357Z,1.20
2023-09-01T08:43:27.707Z,1.10
2023-09-01T08:46:04.824Z,0.73
2023-09-01T08:48:42.046Z,1.13
2023-09-01T08:51:08.844Z,0.85
2023-09-01T08:53:37.299Z,1.30
2023-09-01T08:56:04.391Z,1.20
2023-09-01T08:58:31.136Z,1.27
2023-09-01T09:00:57.945Z,1.05
2023-09-01T09:03:24.767Z,1.02
2023-09-01T09:05:52.960Z,1.20
2023-09-01T09:08:19.721Z,0.90
2023-09-01T09:10:46.910Z,1.10
2023-09-01T09:13:21.942Z,1.17
2023-09-01T09:16:07.289Z,0.90
2023-09-01T09:18:34.540Z,1.23
2023-09-01T09:21:03.133Z,1.00
2023-09-01T09:23:42.400Z,1.17
2023-09-01T09:26:09.212Z,1.00
2023-09-01T09:28:36.003Z,1.30
2023-09-01T09:31:03.379Z,0.93
2023-09-01T09:33:33.415Z,1.23
2023-09-01T09:36:02.063Z,1.10
2023-09-01T09:38:41.485Z,1.23
2023-09-01T09:41:08.328Z,1.25
2023-09-01T09:43:44.321Z,0.88
2023-09-01T09:46:11.442Z,0.82
2023-09-01T09:48:39.121Z,1.08
2023-09-01T09:51:07.878Z,1.17
2023-09-01T09:53:36.112Z,1.08
2023-09-01T09:56:17.859Z,1.20
2023-09-01T09:58:46.645Z,1.38
2023-09-01T10:01:17.142Z,1.20
2023-09-01T10:03:44.640Z,1.55
2023-09-01T10:06:13.355Z,1.10
2023-09-01T10:08:41.218Z,1.27
2023-09-01T10:11:09.364Z,1.15
2023-09-01T10:13:37.760Z,0.82
2023-09-01T10:16:05.688Z,1.20
2023-09-01T10:18:34.975Z,1.13
2023-09-01T10:21:01.926Z,1.13
2023-09-01T10:23:30.125Z,1.13
2023-09-01T10:26:18.220Z,1.15
2023-09-01T10:29:03.707Z,1.23
2023-09-01T10:31:31.055Z,1.35
2023-09-01T10:34:08.699Z,1.50
2023-09-01T10:36:36.020Z,1.10
2023-09-01T10:39:22.886Z,1.52
2023-09-01T10:41:55.011Z,1.20
2023-09-01T10:44:21.816Z,1.17
2023-09-01T10:46:48.909Z,1.30
2023-09-01T10:49:15.692Z,1.13
2023-09-01T10:51:42.429Z,1.20
2023-09-01T10:54:40.559Z,1.17
2023-09-01T10:57:12.185Z,1.27
2023-09-01T10:59:38.934Z,1.20
2023-09-01T11:02:18.769Z,1.23
2023-09-01T11:04:46.142Z,1.25
2023-09-01T11:07:12.968Z,0.95
2023-09-01T11:09:54.418Z,1.30
2023-09-01T11:12:28.155Z,1.42
2023-09-01T11:14:56.900Z,1.05
2023-09-01T11:17:34.047Z,1.00
2023-09-01T11:20:00.867Z,1.13
2023-09-01T11:22:27.714Z,1.20
2023-09-01T11:24:55.901Z,1.10
2023-09-01T11:27:22.814Z,1.38
2023-09-01T11:29:53.595Z,1.15
2023-09-01T11:32:25.869Z,1.13
2023-09-01T11:34:53.941Z,1.20
2023-09-01T11:37:34.743Z,1.20
2023-09-01T11:40:04.121Z,1.10
2023-09-01T11:42:31.506Z,1.33
2023-09-01T11:44:58.332Z,1.30
2023-09-01T11:47:25.172Z,1.10
2023-09-01T11:49:51.940Z,1.45
2023-09-01T11:52:18.738Z,1.35
2023-09-01T11:54:45.506Z,1.13
2023-09-01T11:57:14.533Z,1.42
2023-09-01T11:59:45.315Z,1.33
2023-09-01T12:02:13.902Z,1.33
2023-09-01T12:04:46.293Z,1.05
2023-09-01T12:07:23.334Z,1.17
2023-09-01T12:09:50.567Z,1.15
2023-09-01T12:12:18.803Z,1.33
2023-09-01T12:14:45.746Z,1.00
2023-09-01T12:17:17.505Z,1.38
2023-09-01T12:19:48.874Z,1.17
2023-09-01T12:22:15.695Z,1.20
2023-09-01T12:24:52.935Z,1.25
2023-09-01T12:27:21.440Z,1.20
2023-09-01T12:29:48.835Z,1.25
2023-09-01T12:32:15.988Z,1.23
2023-09-01T12:34:43.070Z,1.10
2023-09-01T12:37:09.984Z,1.48
2023-09-01T12:39:36.821Z,1.25
2023-09-01T12:42:03.841Z,0.88
2023-09-01T12:44:32.399Z,1.00
2023-09-01T12:46:59.193Z,1.35
2023-09-01T12:49:26.193Z,0.93
2023-09-01T12:51:52.993Z,0.93
2023-09-01T12:54:19.744Z,1.40
2023-09-01T12:56:46.522Z,0.85
2023-09-01T12:59:13.494Z,1.00
2023-09-01T13:01:41.614Z,0.95
2023-09-01T13:04:08.378Z,1.40
2023-09-01T13:06:35.134Z,0.98
2023-09-01T13:09:02.007Z,1.00
2023-09-01T13:11:28.835Z,1.13
2023-09-01T13:13:55.651Z,1.08
2023-09-01T13:16:28.432Z,0.80
2023-09-01T13:18:56.592Z,0.80
2023-09-01T13:21:23.462Z,1.00
2023-09-01T13:23:50.257Z,0.90
2023-09-01T13:26:17.347Z,0.93
2023-09-01T13:28:44.143Z,0.85
2023-09-01T13:31:11.156Z,1.00
2023-09-01T13:33:38.031Z,0.88
2023-09-01T13:36:06.390Z,1.10
2023-09-01T13:38:33.201Z,0.95
2023-09-01T13:40:59.974Z,1.27
2023-09-01T13:43:26.784Z,1.02
2023-09-01T13:45:55.042Z,0.95
2023-09-01T13:48:21.787Z,1.40
2023-09-01T13:50:48.929Z,1.20
2023-09-01T13:53:17.563Z,1.20
2023-09-01T13:55:44.592Z,1.02
2023-09-01T13:58:11.363Z,1.20
2023-09-01T14:00:38.675Z,1.02
2023-09-01T14:03:05.562Z,0.98
2023-09-01T14:05:32.816Z,1.13
2023-09-01T14:07:59.594Z,0.98
2023-09-01T14:10:27.677Z,1.25
2023-09-01T14:12:54.442Z,1.20
2023-09-01T14:15:21.194Z,1.20
2023-09-01T14:17:48.000Z,0.82
2023-09-01T14:20:14.977Z,0.98
2023-09-01T14:22:41.825Z,0.80
2023-09-01T14:25:09.102Z,1.00
2023-09-01T14:27:37.236Z,1.10
2023-09-01T14:30:04.510Z,1.00
2023-09-01T14:32:31.274Z,0.95
2023-09-01T14:34:58.035Z,0.93
2023-09-01T14:37:24.781Z,1.30
2023-09-01T14:39:51.522Z,1.10
2023-09-01T14:42:18.284Z,1.15
2023-09-01T14:44:46.335Z,1.10
2023-09-01T14:47:13.136Z,1.02
2023-09-01T14:49:39.869Z,0.82
2023-09-01T14:52:06.662Z,1.23
2023-09-01T14:54:33.391Z,1.10
2023-09-01T14:57:00.113Z,1.10
2023-09-01T14:59:26.895Z,0.80
2023-09-01T15:01:55.732Z,1.42
2023-09-01T15:04:22.572Z,0.93
2023-09-01T15:06:49.414Z,0.95
2023-09-01T15:09:16.181Z,0.90
2023-09-01T15:11:42.949Z,1.10
2023-09-01T15:14:09.878Z,0.85
2023-09-01T15:16:36.746Z,1.10
2023-09-01T15:19:05.040Z,1.15
2023-09-01T15:21:33.155Z,1.20
2023-09-01T15:23:59.971Z,1.00
2023-09-01T15:26:26.701Z,1.30
2023-09-01T15:28:53.436Z,1.42
2023-09-01T15:31:20.272Z,0.90
2023-09-01T15:33:47.093Z,0.75
2023-09-01T15:36:15.208Z,1.00
2023-09-01T15:38:42.045Z,0.90
2023-09-01T15:41:10.487Z,0.63
2023-09-01T15:43:38.804Z,1.00
2023-09-01T15:46:09.385Z,0.95
2023-09-01T15:48:36.386Z,0.88
2023-09-01T15:51:03.714Z,0.80
2023-09-01T15:53:31.861Z,0.70
2023-09-01T15:56:00.647Z,0.80
2023-09-01T15:58:27.673Z,0.60
2023-09-01T16:01:01.187Z,0.70
2023-09-01T16:03:34.603Z,0.70
2023-09-01T16:06:09.133Z,0.93
2023-09-01T16:08:37.565Z,0.70
2023-09-01T16:11:04.978Z,0.60
2023-09-01T16:13:31.929Z,0.77
2023-09-01T16:16:03.339Z,0.85
2023-09-01T16:18:30.150Z,0.68
2023-09-01T16:20:56.937Z,0.90
2023-09-01T16:23:23.695Z,0.70
2023-09-01T16:25:57.822Z,0.88
2023-09-01T16:28:24.574Z,1.02
2023-09-01T16:30:51.575Z,1.25
2023-09-01T16:33:18.547Z,0.93
2023-09-01T16:36:03.205Z,0.90
2023-09-01T16:38:30.039Z,0.80
2023-09-01T16:40:58.538Z,0.88
2023-09-01T16:43:25.646Z,0.80
2023-09-01T16:45:53.476Z,0.95
2023-09-01T16:48:20.672Z,1.67
2023-09-01T16:50:47.564Z,1.08
2023-09-01T16:53:15.146Z,0.70
2023-09-01T16:55:45.567Z,1.02
2023-09-01T16:58:14.492Z,1.00
2023-09-01T17:00:41.240Z,0.82
2023-09-01T17:03:08.061Z,0.90
2023-09-01T17:05:34.912Z,1.00
2023-09-01T17:08:01.674Z,1.00
2023-09-01T17:10:28.504Z,1.05
2023-09-01T17:12:55.247Z,1.20
2023-09-01T17:15:23.329Z,1.08
2023-09-01T17:17:50.129Z,0.85
2023-09-01T17:20:17.650Z,0.80
2023-09-01T17:22:45.448Z,1.25
2023-09-01T17:25:12.246Z,1.23
2023-09-01T17:27:39.124Z,0.98
2023-09-01T17:30:06.928Z,0.93
2023-09-01T17:32:35.035Z,0.82
2023-09-01T17:35:01.791Z,0.93
2023-09-01T17:37:28.546Z,0.90
2023-09-01T17:39:55.320Z,0.82
2023-09-01T17:42:22.463Z,0.80
2023-09-01T17:44:49.190Z,0.90
2023-09-01T17:47:15.962Z,0.80
2023-09-01T17:49:44.026Z,0.90
2023-09-01T17:52:10.794Z,0.93
2023-09-01T17:54:37.606Z,0.90
2023-09-01T17:57:04.999Z,1.17
2023-09-01T17:59:31.832Z,0.80
2023-09-01T18:01:58.628Z,0.68
2023-09-01T18:04:25.406Z,0.80
2023-09-01T18:06:53.611Z,0.88
2023-09-01T18:09:21.169Z,0.70
2023-09-01T18:11:50.852Z,0.90
2023-09-01T18:14:17.612Z,1.00
2023-09-01T18:16:44.419Z,1.00
2023-09-01T18:19:11.165Z,0.90
2023-09-01T18:21:38.721Z,0.85
2023-09-01T18:24:11.015Z,0.90
2023-09-01T18:26:39.216Z,0.80
2023-09-01T18:29:06.903Z,0.90
2023-09-01T18:31:34.121Z,1.02
2023-09-01T18:34:00.895Z,0.90
2023-09-01T18:36:28.083Z,0.90
2023-09-01T18:38:57.218Z,0.90
2023-09-01T18:41:27.781Z,1.00
2023-09-01T18:43:57.512Z,1.10
2023-09-01T18:46:27.461Z,0.80
2023-09-01T18:48:54.251Z,0.88
2023-09-01T18:51:23.089Z,0.90
2023-09-01T18:53:49.914Z,0.80
2023-09-01T18:56:19.236Z,1.08
2023-09-01T18:58:47.630Z,1.02
2023-09-01T19:01:16.774Z,1.17
2023-09-01T19:03:44.082Z,1.00
2023-09-01T19:06:19.771Z,1.20
2023-09-01T19:08:46.517Z,0.90
2023-09-01T19:11:16.670Z,0.90
2023-09-01T19:13:43.907Z,0.80
2023-09-01T19:16:13.556Z,0.85
2023-09-01T19:18:41.698Z,1.02
2023-09-01T19:21:10.526Z,1.00
2023-09-01T19:23:37.591Z,0.95
2023-09-01T19:26:07.415Z,1.05
2023-09-01T19:28:39.026Z,0.73
2023-09-01T19:31:07.610Z,0.80
2023-09-01T19:33:37.649Z,1.10
2023-09-01T19:36:05.096Z,1.00
2023-09-01T19:38:31.943Z,1.75
2023-09-01T19:41:00.075Z,1.20
2023-09-01T19:43:27.306Z,1.80
2023-09-01T19:45:55.053Z,1.40
2023-09-01T19:48:22.312Z,1.65
2023-09-01T19:50:50.410Z,1.35
2023-09-01T19:53:24.587Z,2.10
2023-09-01T19:55:51.590Z,1.50
2023-09-01T19:58:18.688Z,1.70
2023-09-01T20:00:46.226Z,1.55
2023-09-01T20:03:16.878Z,1.88
2023-09-01T20:05:44.174Z,1.20
2023-09-01T20:08:12.422Z,1.67
2023-09-01T20:10:39.491Z,1.33
2023-09-01T20:13:07.661Z,1.30
2023-09-01T20:15:36.895Z,1.30
2023-09-01T20:18:05.000Z,1.58
2023-09-01T20:20:32.427Z,1.40
2023-09-01T20:22:59.687Z,1.20
2023-09-01T20:25:28.188Z,1.30
2023-09-01T20:27:54.946Z,1.15
2023-09-01T20:30:22.754Z,1.30
2023-09-01T20:32:50.925Z,1.30
2023-09-01T20:35:17.844Z,1.20
2023-09-01T20:37:44.652Z,1.45
2023-09-01T20:40:11.882Z,1.60
2023-09-01T20:42:40.003Z,1.20
2023-09-01T20:45:09.514Z,1.00
2023-09-01T20:47:36.418Z,1.30
2023-09-01T20:50:05.206Z,1.15
2023-09-01T20:52:32.669Z,1.08
2023-09-01T20:54:59.399Z,1.10
2023-09-01T20:57:26.194Z,1.20
2023-09-01T20:59:54.306Z,0.93
2023-09-01T21:02:22.820Z,1.00
2023-09-01T21:04:49.607Z,0.85
2023-09-01T21:07:16.359Z,1.10
2023-09-01T21:09:43.112Z,0.95
2023-09-01T21:12:10.170Z,1.00
2023-09-01T21:14:36.922Z,1.00
2023-09-01T21:17:05.345Z,1.10
2023-09-01T21:19:32.212Z,1.42
2023-09-01T21:21:58.958Z,0.85
2023-09-01T21:24:25.760Z,1.20
2023-09-01T21:26:52.518Z,0.93
2023-09-01T21:29:19.366Z,0.90
2023-09-01T21:31:46.171Z,1.13
2023-09-01T21:34:14.393Z,1.02
2023-09-01T21:36:41.526Z,0.90
2023-09-01T21:39:08.462Z,0.82
2023-09-01T21:41:35.561Z,1.30
2023-09-01T21:44:02.364Z,1.10
2023-09-01T21:46:29.117Z,1.30
2023-09-01T21:48:56.181Z,1.30
2023-09-01T21:51:24.288Z,1.27
2023-09-01T21:53:51.055Z,1.13
2023-09-01T21:56:17.844Z,1.10
2023-09-01T21:58:44.590Z,0.93
2023-09-01T22:01:11.449Z,0.85
2023-09-01T22:03:38.192Z,1.20
2023-09-01T22:06:05.080Z,1.20
2023-09-01T22:08:33.206Z,0.90
2023-09-01T22:10:59.971Z,0.90
2023-09-01T22:13:26.739Z,0.98
2023-09-01T22:15:53.503Z,1.17
2023-09-01T22:18:20.241Z,1.30
2023-09-01T22:20:47.064Z,1.35
2023-09-01T22:23:14.063Z,1.27
2023-09-01T22:25:42.214Z,1.10
2023-09-01T22:28:09.058Z,1.08
2023-09-01T22:30:35.801Z,1.35
2023-09-01T22:33:02.615Z,0.93
2023-09-01T22:35:29.361Z,1.10
2023-09-01T22:38:07.240Z,1.08
2023-09-01T22:40:39.087Z,1.20
2023-09-01T22:43:07.186Z,1.02
2023-09-01T22:45:33.942Z,1.00
2023-09-01T22:48:00.765Z,1.05
2023-09-01T22:50:27.542Z,1.00
2023-09-01T22:52:54.356Z,1.02
2023-09-01T22:55:21.110Z,1.20
2023-09-01T22:57:47.848Z,0.93
2023-09-01T23:00:16.063Z,1.10
2023-09-01T23:02:42.807Z,1.10
2023-09-01T23:05:09.766Z,1.10
2023-09-01T23:07:36.499Z,1.08
2023-09-01T23:10:03.314Z,1.10
2023-09-01T23:12:30.108Z,1.30
2023-09-01T23:14:56.877Z,1.00
2023-09-01T23:17:24.980Z,1.30
2023-09-01T23:19:51.756Z,0.95
2023-09-01T23:22:20.022Z,1.20
2023-09-01T23:24:48.136Z,1.20
2023-09-01T23:27:14.879Z,1.15
2023-09-01T23:29:41.625Z,1.15
2023-09-01T23:32:08.691Z,1.08
2023-09-01T23:34:36.871Z,1.10
2023-09-01T23:37:04.012Z,1.15
2023-09-01T23:39:30.775Z,1.17
2023-09-01T23:41:57.906Z,1.17
2023-09-01T23:44:24.725Z,1.23
2023-09-01T23:46:51.484Z,1.20
2023-09-01T23:49:18.311Z,0.73
2023-09-01T23:51:46.478Z,1.40
2023-09-01T23:54:13.351Z,1.05
2023-09-01T23:56:40.100Z,1.33
2023-09-01T23:59:06.895Z,0.95
